createdAt,value
2018-03-07T00:01:53.522Z,15.15
2018-03-07T00:04:19.987Z,15.14
2018-03-07T00:06:46.425Z,15.14
2018-03-07T00:09:12.873Z,15.14
2018-03-07T00:11:39.304Z,15.14
2018-03-07T00:14:05.744Z,15.13
2018-03-07T00:16:32.185Z,15.14
2018-03-07T00:18:58.623Z,15.14
2018-03-07T00:21:25.059Z,15.14
2018-03-07T00:23:51.502Z,15.13
2018-03-07T00:26:17.970Z,15.14
2018-03-07T00:28:44.389Z,15.13
2018-03-07T00:31:10.828Z,15.13
2018-03-07T00:33:38.032Z,15.12
2018-03-07T00:36:04.472Z,15.14
2018-03-07T00:38:30.913Z,15.13
2018-03-07T00:40:57.354Z,15.13
2018-03-07T00:43:23.824Z,15.12
2018-03-07T00:45:50.241Z,15.13
2018-03-07T00:48:16.686Z,15.13
2018-03-07T00:50:43.127Z,15.12
2018-03-07T00:53:09.551Z,15.14
2018-03-07T00:55:36.759Z,15.13
2018-03-07T00:58:03.182Z,15.13
2018-03-07T01:00:29.619Z,15.13
2018-03-07T01:02:56.046Z,15.13
2018-03-07T01:05:23.269Z,15.13
2018-03-07T01:07:49.709Z,15.12
2018-03-07T01:10:16.149Z,15.12
2018-03-07T01:12:42.592Z,15.12
2018-03-07T01:15:09.118Z,15.13
2018-03-07T01:17:35.562Z,15.12
2018-03-07T01:20:02.001Z,15.11
2018-03-07T01:22:28.460Z,15.11
2018-03-07T01:24:54.899Z,15.11
2018-03-07T01:27:21.330Z,15.11
2018-03-07T01:29:48.517Z,15.12
2018-03-07T01:32:14.951Z,15.11
2018-03-07T01:34:41.384Z,15.11
2018-03-07T01:37:08.588Z,15.12
2018-03-07T01:39:35.005Z,15.11
2018-03-07T01:42:01.444Z,15.12
2018-03-07T01:44:28.638Z,15.13
2018-03-07T01:46:55.070Z,15.13
2018-03-07T01:49:21.502Z,15.13
2018-03-07T01:51:47.935Z,15.11
2018-03-07T01:54:15.126Z,15.12
2018-03-07T01:56:41.566Z,15.10
2018-03-07T01:59:08.017Z,15.11
2018-03-07T02:01:34.438Z,15.11
2018-03-07T02:04:01.660Z,15.11
2018-03-07T02:06:28.899Z,15.11
2018-03-07T02:08:55.326Z,15.11
2018-03-07T02:11:21.760Z,15.10
2018-03-07T02:13:48.963Z,15.10
2018-03-07T02:16:15.385Z,15.11
2018-03-07T02:18:41.811Z,15.10
2018-03-07T02:21:09.067Z,15.10
2018-03-07T02:23:36.281Z,15.09
2018-03-07T02:26:02.816Z,15.09
2018-03-07T02:28:29.290Z,15.10
2018-03-07T02:30:55.720Z,15.09
2018-03-07T02:33:22.163Z,15.10
2018-03-07T02:35:48.585Z,15.10
2018-03-07T02:38:15.025Z,15.09
2018-03-07T02:40:41.460Z,15.09
2018-03-07T02:43:08.653Z,15.09
2018-03-07T02:45:35.079Z,15.08
2018-03-07T02:48:01.527Z,15.08
2018-03-07T02:50:27.959Z,15.09
2018-03-07T02:52:54.404Z,15.09
2018-03-07T02:55:20.852Z,15.09
2018-03-07T02:57:48.042Z,15.09
2018-03-07T03:00:14.483Z,15.10
2018-03-07T03:02:40.947Z,15.09
2018-03-07T03:05:07.396Z,15.09
2018-03-07T03:07:33.863Z,15.09
2018-03-07T03:10:00.304Z,15.09
2018-03-07T03:12:26.770Z,15.09
2018-03-07T03:14:53.193Z,15.09
2018-03-07T03:17:19.634Z,15.10
2018-03-07T03:19:46.061Z,15.14
2018-03-07T03:22:12.594Z,15.11
2018-03-07T03:24:39.510Z,15.11
2018-03-07T03:27:06.641Z,15.11
2018-03-07T03:29:33.339Z,15.10
2018-03-07T03:32:00.529Z,15.10
2018-03-07T03:34:26.966Z,15.10
2018-03-07T03:36:53.536Z,15.11
2018-03-07T03:39:20.011Z,15.10
2018-03-07T03:41:46.473Z,15.10
2018-03-07T03:44:12.916Z,15.10
2018-03-07T03:46:39.360Z,15.09
2018-03-07T03:49:05.805Z,15.10
2018-03-07T03:51:32.240Z,15.10
2018-03-07T03:53:58.670Z,15.10
2018-03-07T03:56:25.117Z,15.09
2018-03-07T03:58:51.584Z,15.10
2018-03-07T04:01:18.010Z,15.10
2018-03-07T04:03:44.480Z,15.10
2018-03-07T04:06:10.906Z,15.10
2018-03-07T04:08:37.367Z,15.09
2018-03-07T04:11:03.809Z,15.09
2018-03-07T04:13:30.272Z,15.09
2018-03-07T04:15:56.725Z,15.09
2018-03-07T04:18:23.956Z,15.10
2018-03-07T04:20:50.401Z,15.09
2018-03-07T04:23:16.851Z,15.09
2018-03-07T04:25:43.286Z,15.08
2018-03-07T04:28:09.755Z,15.10
2018-03-07T04:30:36.340Z,15.10
2018-03-07T04:33:02.818Z,15.09
2018-03-07T04:35:29.263Z,15.09
2018-03-07T04:37:55.722Z,15.08
2018-03-07T04:40:22.145Z,15.09
2018-03-07T04:42:48.612Z,15.09
2018-03-07T04:45:15.051Z,15.09
2018-03-07T04:47:41.549Z,15.09
2018-03-07T04:50:08.002Z,15.09
2018-03-07T04:52:35.218Z,15.09
2018-03-07T04:55:01.679Z,15.08
2018-03-07T04:57:28.161Z,15.09
2018-03-07T04:59:54.589Z,15.08
2018-03-07T05:02:21.782Z,15.09
2018-03-07T05:04:48.210Z,15.08
2018-03-07T05:07:15.401Z,15.08
2018-03-07T05:09:41.825Z,15.08
2018-03-07T05:12:08.282Z,15.09
2018-03-07T05:14:34.720Z,15.08
2018-03-07T05:17:01.145Z,15.08
2018-03-07T05:19:28.341Z,15.07
2018-03-07T05:21:54.774Z,15.09
2018-03-07T05:24:21.197Z,15.08
2018-03-07T05:26:47.665Z,15.08
2018-03-07T05:29:14.089Z,15.08
2018-03-07T05:31:41.292Z,15.08
2018-03-07T05:34:07.735Z,15.07
2018-03-07T05:36:34.185Z,15.08
2018-03-07T05:39:00.608Z,15.09
2018-03-07T05:41:27.043Z,15.08
2018-03-07T05:43:54.257Z,15.08
2018-03-07T05:46:20.686Z,15.08
2018-03-07T05:48:47.168Z,15.08
2018-03-07T05:51:13.609Z,15.07
2018-03-07T05:53:40.073Z,15.08
2018-03-07T05:56:06.502Z,15.08
2018-03-07T05:58:32.975Z,15.07
2018-03-07T06:01:00.185Z,15.08
2018-03-07T06:03:26.637Z,15.07
2018-03-07T06:05:53.840Z,15.07
2018-03-07T06:08:20.286Z,15.07
2018-03-07T06:10:47.495Z,15.07
2018-03-07T06:13:13.965Z,15.07
2018-03-07T06:15:40.412Z,15.07
2018-03-07T06:18:07.634Z,15.07
2018-03-07T06:20:34.081Z,15.07
2018-03-07T06:23:00.539Z,15.07
2018-03-07T06:25:26.970Z,15.07
2018-03-07T06:27:53.423Z,15.07
2018-03-07T06:30:19.859Z,15.07
2018-03-07T06:32:46.319Z,15.06
2018-03-07T06:35:12.788Z,15.06
2018-03-07T06:37:39.254Z,15.06
2018-03-07T06:40:05.709Z,15.06
2018-03-07T06:42:32.153Z,15.05
2018-03-07T06:44:58.586Z,15.06
2018-03-07T06:47:25.010Z,15.06
2018-03-07T06:49:51.453Z,15.06
2018-03-07T06:52:17.878Z,15.05
2018-03-07T06:54:44.338Z,15.05
2018-03-07T06:57:10.762Z,15.06
2018-03-07T06:59:37.212Z,15.06
2018-03-07T07:02:03.652Z,15.06
2018-03-07T07:04:30.102Z,15.06
2018-03-07T07:06:56.553Z,15.06
2018-03-07T07:09:23.022Z,15.06
2018-03-07T07:11:49.468Z,15.06
2018-03-07T07:14:15.895Z,15.06
2018-03-07T07:16:42.318Z,15.05
2018-03-07T07:19:09.505Z,15.06
2018-03-07T07:21:35.940Z,15.05
2018-03-07T07:24:02.362Z,15.04
2018-03-07T07:26:29.607Z,15.06
2018-03-07T07:28:56.045Z,15.07
2018-03-07T07:31:22.490Z,15.05
2018-03-07T07:33:48.932Z,15.03
2018-03-07T07:36:15.403Z,15.03
2018-03-07T07:38:42.599Z,15.03
2018-03-07T07:41:09.038Z,15.01
2018-03-07T07:43:35.463Z,14.73
2018-03-07T07:46:02.659Z,14.78
2018-03-07T07:48:29.103Z,14.89
2018-03-07T07:50:55.545Z,14.94
2018-03-07T07:53:21.978Z,14.98
2018-03-07T07:55:48.415Z,14.97
2018-03-07T07:58:15.618Z,14.99
2018-03-07T08:00:42.043Z,15.00
2018-03-07T08:03:08.501Z,15.00
2018-03-07T08:05:34.935Z,15.04
2018-03-07T08:08:01.376Z,15.02
2018-03-07T08:10:27.828Z,15.02
2018-03-07T08:12:54.295Z,15.00
2018-03-07T08:15:20.737Z,15.00
2018-03-07T08:17:47.190Z,15.00
2018-03-07T08:20:13.642Z,15.00
2018-03-07T08:22:40.106Z,15.01
2018-03-07T08:25:06.554Z,15.00
2018-03-07T08:27:33.312Z,14.99
2018-03-07T08:29:59.758Z,15.00
2018-03-07T08:32:26.200Z,14.98
2018-03-07T08:34:52.618Z,14.81
2018-03-07T08:37:19.059Z,14.91
2018-03-07T08:39:45.516Z,14.94
2018-03-07T08:42:11.955Z,14.95
2018-03-07T08:44:38.416Z,14.94
2018-03-07T08:47:04.838Z,14.94
2018-03-07T08:49:31.332Z,14.95
2018-03-07T08:51:58.537Z,14.95
2018-03-07T08:54:24.971Z,14.96
2018-03-07T08:56:51.405Z,14.98
2018-03-07T08:59:17.849Z,14.98
2018-03-07T09:01:45.046Z,14.99
2018-03-07T09:04:11.482Z,14.99
2018-03-07T09:06:37.911Z,14.99
2018-03-07T09:09:04.366Z,14.99
2018-03-07T09:11:30.808Z,14.99
2018-03-07T09:13:57.229Z,14.99
2018-03-07T09:16:24.427Z,15.00
2018-03-07T09:18:50.869Z,14.99
2018-03-07T09:21:17.297Z,15.00
2018-03-07T09:23:43.743Z,15.02
2018-03-07T09:26:10.176Z,15.00
2018-03-07T09:28:37.373Z,15.00
2018-03-07T09:31:03.815Z,14.99
2018-03-07T09:33:30.255Z,14.99
2018-03-07T09:35:56.692Z,14.98
2018-03-07T09:38:23.131Z,14.98
2018-03-07T09:40:49.586Z,14.98
2018-03-07T09:43:16.018Z,14.99
2018-03-07T09:45:43.206Z,14.99
2018-03-07T09:48:09.631Z,14.98
2018-03-07T09:50:36.086Z,14.96
2018-03-07T09:53:02.517Z,14.97
2018-03-07T09:55:29.711Z,14.99
2018-03-07T09:57:56.144Z,14.99
2018-03-07T10:00:22.607Z,14.99
2018-03-07T10:02:49.050Z,14.98
2018-03-07T10:05:15.478Z,14.98
2018-03-07T10:07:41.915Z,14.98
2018-03-07T10:10:08.346Z,14.98
2018-03-07T10:12:35.541Z,14.97
2018-03-07T10:15:01.995Z,15.01
2018-03-07T10:17:28.430Z,15.05
2018-03-07T10:19:54.860Z,15.05
2018-03-07T10:22:21.301Z,15.05
2018-03-07T10:24:47.730Z,15.04
2018-03-07T10:27:14.964Z,15.04
2018-03-07T10:29:41.404Z,15.04
2018-03-07T10:32:07.878Z,15.05
2018-03-07T10:34:35.074Z,15.00
2018-03-07T10:37:01.555Z,15.00
2018-03-07T10:39:27.996Z,15.00
2018-03-07T10:41:54.456Z,15.01
2018-03-07T10:44:20.896Z,15.00
2018-03-07T10:46:48.126Z,15.00
2018-03-07T10:49:14.563Z,15.00
2018-03-07T10:51:40.986Z,14.99
2018-03-07T10:54:07.419Z,14.99
2018-03-07T10:56:33.868Z,15.00
2018-03-07T10:59:00.304Z,15.00
2018-03-07T11:01:26.749Z,15.01
2018-03-07T11:03:53.197Z,15.04
2018-03-07T11:06:19.640Z,15.04
2018-03-07T11:08:46.105Z,15.03
2018-03-07T11:11:13.308Z,14.99
2018-03-07T11:13:39.763Z,15.00
2018-03-07T11:16:06.204Z,15.00
2018-03-07T11:18:32.633Z,14.99
2018-03-07T11:20:59.077Z,15.01
2018-03-07T11:23:25.535Z,15.00
2018-03-07T11:25:51.978Z,15.05
2018-03-07T11:28:18.420Z,15.04
2018-03-07T11:30:44.841Z,15.07
2018-03-07T11:33:12.038Z,15.04
2018-03-07T11:35:38.483Z,15.04
2018-03-07T11:38:04.947Z,15.05
2018-03-07T11:40:31.381Z,15.08
2018-03-07T11:42:57.829Z,15.06
2018-03-07T11:45:24.258Z,15.05
2018-03-07T11:47:50.696Z,15.04
2018-03-07T11:50:17.141Z,15.04
2018-03-07T11:52:43.572Z,15.04
2018-03-07T11:55:10.027Z,15.09
2018-03-07T11:57:36.476Z,15.06
2018-03-07T12:00:02.933Z,15.05
2018-03-07T12:02:29.358Z,15.05
2018-03-07T12:04:55.790Z,15.03
2018-03-07T12:07:22.990Z,15.04
2018-03-07T12:09:49.820Z,15.03
2018-03-07T12:12:16.265Z,15.05
2018-03-07T12:14:42.708Z,15.03
2018-03-07T12:17:09.900Z,15.05
2018-03-07T12:19:36.346Z,15.05
2018-03-07T12:22:02.797Z,15.04
2018-03-07T12:24:29.258Z,15.05
2018-03-07T12:26:55.687Z,15.05
2018-03-07T12:29:22.111Z,15.04
2018-03-07T12:31:48.529Z,15.04
2018-03-07T12:34:15.718Z,15.05
2018-03-07T12:36:42.147Z,15.06
2018-03-07T12:39:09.361Z,15.06
2018-03-07T12:41:35.794Z,15.04
2018-03-07T12:44:02.223Z,15.06
2018-03-07T12:46:28.668Z,15.09
2018-03-07T12:48:55.137Z,15.07
2018-03-07T12:51:21.584Z,15.07
2018-03-07T12:53:48.033Z,15.07
2018-03-07T12:56:14.501Z,15.00
2018-03-07T12:58:40.930Z,15.06
2018-03-07T13:01:07.385Z,15.10
2018-03-07T13:03:33.833Z,15.13
2018-03-07T13:06:00.285Z,15.14
2018-03-07T13:08:26.723Z,15.13
2018-03-07T13:10:53.201Z,15.14
2018-03-07T13:13:20.411Z,15.16
2018-03-07T13:15:46.934Z,15.14
2018-03-07T13:18:13.366Z,15.15
2018-03-07T13:20:40.584Z,15.16
2018-03-07T13:23:07.014Z,15.16
2018-03-07T13:25:34.221Z,15.16
2018-03-07T13:28:00.649Z,15.16
2018-03-07T13:30:27.085Z,15.16
2018-03-07T13:32:54.277Z,15.17
2018-03-07T13:35:21.483Z,15.17
2018-03-07T13:37:47.916Z,15.17
2018-03-07T13:40:14.342Z,15.16
2018-03-07T13:42:41.576Z,15.16
2018-03-07T13:45:08.026Z,15.17
2018-03-07T13:47:34.478Z,15.17
2018-03-07T13:50:00.911Z,15.17
2018-03-07T13:52:27.386Z,15.17
2018-03-07T13:54:54.598Z,15.17
2018-03-07T13:57:21.054Z,15.17
2018-03-07T13:59:48.245Z,15.18
2018-03-07T14:02:14.693Z,15.17
2018-03-07T14:04:41.905Z,15.18
2018-03-07T14:07:08.364Z,15.17
2018-03-07T14:09:34.820Z,15.17
2018-03-07T14:12:01.286Z,15.17
2018-03-07T14:14:27.723Z,15.17
2018-03-07T14:16:54.183Z,15.18
2018-03-07T14:19:20.611Z,15.17
2018-03-07T14:21:47.089Z,15.17
2018-03-07T14:24:14.278Z,15.18
2018-03-07T14:26:40.710Z,15.18
2018-03-07T14:29:07.142Z,15.17
2018-03-07T14:31:34.348Z,15.18
2018-03-07T14:34:00.798Z,15.17
2018-03-07T14:36:27.232Z,15.18
2018-03-07T14:38:53.673Z,15.17
2018-03-07T14:41:20.121Z,15.18
2018-03-07T14:43:46.542Z,15.18
2018-03-07T14:46:13.791Z,15.19
2018-03-07T14:48:40.216Z,15.19
2018-03-07T14:51:06.647Z,15.19
2018-03-07T14:53:33.078Z,15.18
2018-03-07T14:55:59.529Z,15.20
2018-03-07T14:58:25.958Z,15.18
2018-03-07T15:00:52.390Z,15.18
2018-03-07T15:03:18.826Z,15.19
2018-03-07T15:05:46.019Z,15.18
2018-03-07T15:08:12.449Z,15.18
2018-03-07T15:10:38.890Z,15.18
2018-03-07T15:13:05.324Z,15.19
2018-03-07T15:15:31.788Z,15.18
2018-03-07T15:17:58.233Z,15.17
2018-03-07T15:20:24.672Z,15.18
2018-03-07T15:22:51.110Z,15.18
2018-03-07T15:25:17.550Z,15.18
2018-03-07T15:27:44.760Z,15.18
2018-03-07T15:30:11.191Z,15.19
2018-03-07T15:32:37.632Z,15.18
2018-03-07T15:35:04.077Z,15.19
2018-03-07T15:37:30.551Z,15.19
2018-03-07T15:39:56.996Z,15.19
2018-03-07T15:42:23.465Z,15.19
2018-03-07T15:44:49.894Z,15.19
2018-03-07T15:47:16.366Z,15.19
2018-03-07T15:49:43.574Z,15.19
2018-03-07T15:52:10.031Z,15.18
2018-03-07T15:54:36.461Z,15.18
2018-03-07T15:57:02.909Z,15.20
2018-03-07T15:59:29.361Z,15.08
2018-03-07T16:01:55.828Z,15.11
2018-03-07T16:04:22.262Z,15.16
2018-03-07T16:06:48.733Z,15.18
2018-03-07T16:09:15.167Z,15.19
2018-03-07T16:11:42.387Z,15.20
2018-03-07T16:14:08.900Z,15.20
2018-03-07T16:16:35.326Z,15.20
2018-03-07T16:19:01.774Z,15.21
2018-03-07T16:21:29.009Z,15.21
2018-03-07T16:23:55.453Z,15.20
2018-03-07T16:26:21.896Z,15.21
2018-03-07T16:28:48.330Z,15.21
2018-03-07T16:31:14.773Z,15.21
2018-03-07T16:33:41.198Z,15.21
2018-03-07T16:36:07.649Z,15.21
2018-03-07T16:38:34.863Z,15.21
2018-03-07T16:41:01.294Z,15.19
2018-03-07T16:43:27.731Z,15.19
2018-03-07T16:45:54.168Z,14.78
2018-03-07T16:48:20.599Z,14.59
2018-03-07T16:50:47.027Z,14.55
2018-03-07T16:53:14.722Z,14.49
2018-03-07T16:55:41.164Z,14.46
2018-03-07T16:58:07.599Z,14.48
2018-03-07T17:00:34.803Z,14.54
2018-03-07T17:03:01.241Z,14.80
2018-03-07T17:05:27.679Z,14.94
2018-03-07T17:07:54.106Z,15.02
2018-03-07T17:10:21.300Z,15.07
2018-03-07T17:12:47.723Z,15.08
2018-03-07T17:15:14.150Z,15.09
2018-03-07T17:17:41.350Z,15.10
2018-03-07T17:20:07.796Z,15.12
2018-03-07T17:22:34.233Z,15.14
2018-03-07T17:25:00.659Z,15.14
2018-03-07T17:27:27.863Z,15.14
2018-03-07T17:29:54.308Z,15.15
2018-03-07T17:32:20.797Z,15.14
2018-03-07T17:34:48.024Z,15.15
2018-03-07T17:37:14.450Z,15.15
2018-03-07T17:39:40.884Z,15.13
2018-03-07T17:42:07.339Z,15.14
2018-03-07T17:44:33.777Z,15.15
2018-03-07T17:47:00.263Z,15.11
2018-03-07T17:49:26.716Z,15.09
2018-03-07T17:51:53.184Z,15.12
2018-03-07T17:54:20.478Z,15.14
2018-03-07T17:56:46.956Z,15.15
2018-03-07T17:59:13.527Z,15.14
2018-03-07T18:01:39.970Z,15.15
2018-03-07T18:04:06.501Z,15.16
2018-03-07T18:06:33.062Z,15.17
2018-03-07T18:08:59.638Z,15.17
2018-03-07T18:11:26.209Z,15.17
2018-03-07T18:13:52.759Z,15.17
2018-03-07T18:16:19.311Z,15.18
2018-03-07T18:18:45.997Z,15.17
2018-03-07T18:21:13.508Z,15.17
2018-03-07T18:23:40.084Z,15.17
2018-03-07T18:26:06.651Z,15.17
2018-03-07T18:28:33.212Z,15.18
2018-03-07T18:30:59.791Z,15.18
2018-03-07T18:33:27.296Z,15.18
2018-03-07T18:35:53.864Z,15.18
2018-03-07T18:38:20.460Z,15.18
2018-03-07T18:40:47.788Z,15.18
2018-03-07T18:43:14.478Z,15.18
2018-03-07T18:45:41.810Z,15.18
2018-03-07T18:48:08.409Z,15.19
2018-03-07T18:50:34.958Z,15.18
2018-03-07T18:53:01.546Z,15.18
2018-03-07T18:55:28.178Z,15.18
2018-03-07T18:57:54.789Z,15.18
2018-03-07T19:00:22.111Z,15.17
2018-03-07T19:02:48.711Z,15.18
2018-03-07T19:05:16.112Z,15.18
2018-03-07T19:07:42.701Z,15.18
2018-03-07T19:10:09.254Z,15.18
2018-03-07T19:12:35.854Z,15.18
2018-03-07T19:15:02.411Z,15.18
2018-03-07T19:17:28.996Z,15.18
2018-03-07T19:19:55.459Z,15.18
2018-03-07T19:22:25.725Z,15.18
2018-03-07T19:24:53.011Z,15.19
2018-03-07T19:27:21.244Z,15.18
2018-03-07T19:29:48.054Z,15.18
2018-03-07T19:32:14.531Z,15.19
2018-03-07T19:34:41.000Z,15.19
2018-03-07T19:37:08.315Z,15.18
2018-03-07T19:39:34.771Z,15.19
2018-03-07T19:42:01.245Z,15.18
2018-03-07T19:44:27.731Z,15.19
2018-03-07T19:46:54.339Z,15.19
2018-03-07T19:49:20.773Z,15.18
2018-03-07T19:51:47.243Z,15.19
2018-03-07T19:54:13.745Z,15.19
2018-03-07T19:56:40.158Z,15.19
2018-03-07T19:59:07.350Z,15.18
2018-03-07T20:01:33.799Z,15.20
2018-03-07T20:04:00.266Z,15.19
2018-03-07T20:06:26.882Z,15.19
2018-03-07T20:08:53.347Z,15.19
2018-03-07T20:11:19.918Z,15.18
2018-03-07T20:13:46.357Z,15.18
2018-03-07T20:16:13.753Z,15.19
2018-03-07T20:18:40.355Z,15.18
2018-03-07T20:21:06.937Z,15.18
2018-03-07T20:23:33.367Z,15.18
2018-03-07T20:25:59.807Z,15.19
2018-03-07T20:28:26.251Z,15.19
2018-03-07T20:30:52.684Z,15.18
2018-03-07T20:33:19.240Z,15.19
2018-03-07T20:35:45.736Z,15.19
2018-03-07T20:38:12.946Z,15.18
2018-03-07T20:40:39.404Z,15.19
2018-03-07T20:43:06.618Z,15.19
2018-03-07T20:45:33.818Z,15.19
2018-03-07T20:48:00.242Z,15.19
2018-03-07T20:50:26.720Z,15.18
2018-03-07T20:52:53.181Z,15.19
2018-03-07T20:55:19.587Z,15.19
2018-03-07T20:57:46.031Z,15.19
2018-03-07T21:00:12.652Z,15.19
2018-03-07T21:02:39.878Z,15.19
2018-03-07T21:05:06.459Z,15.19
2018-03-07T21:07:32.972Z,15.20
2018-03-07T21:09:59.600Z,15.20
2018-03-07T21:12:26.062Z,15.19
2018-03-07T21:14:52.642Z,15.19
2018-03-07T21:17:19.140Z,15.19
2018-03-07T21:19:45.565Z,15.19
2018-03-07T21:22:12.045Z,15.19
2018-03-07T21:24:38.485Z,15.19
2018-03-07T21:27:04.943Z,15.20
2018-03-07T21:29:31.398Z,15.20
2018-03-07T21:31:57.852Z,15.21
2018-03-07T21:34:24.286Z,15.20
2018-03-07T21:36:50.801Z,15.19
2018-03-07T21:39:17.242Z,15.20
2018-03-07T21:41:43.849Z,15.20
2018-03-07T21:44:10.285Z,15.20
2018-03-07T21:46:36.711Z,15.20
2018-03-07T21:49:03.138Z,15.20
2018-03-07T21:51:29.580Z,15.20
2018-03-07T21:53:56.020Z,15.20
2018-03-07T21:56:22.464Z,15.21
2018-03-07T21:58:48.933Z,15.21
2018-03-07T22:01:15.377Z,15.20
2018-03-07T22:03:41.853Z,15.21
2018-03-07T22:06:08.326Z,15.20
2018-03-07T22:08:35.519Z,15.20
2018-03-07T22:11:01.943Z,15.20
2018-03-07T22:13:28.379Z,15.20
2018-03-07T22:15:55.587Z,15.22
2018-03-07T22:18:22.214Z,15.22
2018-03-07T22:20:48.647Z,15.22
2018-03-07T22:23:15.899Z,15.22
2018-03-07T22:25:43.138Z,15.22
2018-03-07T22:28:09.682Z,15.21
2018-03-07T22:30:36.222Z,15.22
2018-03-07T22:33:03.565Z,15.21
2018-03-07T22:35:30.015Z,15.22
2018-03-07T22:37:56.573Z,15.21
2018-03-07T22:40:23.045Z,15.22
2018-03-07T22:42:49.488Z,15.21
2018-03-07T22:45:15.937Z,15.22
2018-03-07T22:47:42.448Z,15.21
2018-03-07T22:50:09.704Z,15.20
2018-03-07T22:52:36.399Z,15.19
2018-03-07T22:55:02.884Z,15.20
2018-03-07T22:57:29.411Z,15.23
2018-03-07T22:59:56.614Z,15.23
2018-03-07T23:02:23.057Z,15.22
2018-03-07T23:04:50.941Z,15.22
2018-03-07T23:07:17.419Z,15.22
2018-03-07T23:09:43.843Z,15.23
2018-03-07T23:12:10.298Z,15.23
2018-03-07T23:14:36.752Z,15.23
2018-03-07T23:17:03.221Z,15.23
2018-03-07T23:19:29.654Z,15.23
2018-03-07T23:21:56.166Z,15.23
2018-03-07T23:24:22.594Z,15.23
2018-03-07T23:26:49.018Z,15.23
2018-03-07T23:29:16.312Z,15.23
2018-03-07T23:31:42.776Z,15.22
2018-03-07T23:34:09.204Z,15.23
2018-03-07T23:36:35.668Z,15.23
2018-03-07T23:39:02.118Z,15.23
2018-03-07T23:41:28.538Z,15.23
2018-03-07T23:43:54.989Z,15.23
2018-03-07T23:46:21.447Z,15.23
2018-03-07T23:48:47.878Z,15.23
2018-03-07T23:51:14.334Z,15.23
2018-03-07T23:53:40.766Z,15.23
2018-03-07T23:56:07.244Z,15.22
2018-03-07T23:58:34.284Z,15.23
